Airport Name : Isle Of Man

Other Name : Isle Of Man

ICAO : EGNS

IATA : IOM

FAA :

Latitude : 54.083333

Longitude : -4.623889

Country : Isle of Man

Local Date and Time : 07 Mar 2021 15:28

 

TAF (Terminal Aerodrome Forecast)

TAF EGNS 071400Z 0715/0722 24008KT 9999 FEW020

 

METAR (METeorological Aerodrome Report)

EGNS 071520Z 25008KT CAVOK 09/01 Q1026 NOSIG

EGNS 071450Z 26009KT CAVOK 09/03 Q1026 NOSIG

EGNS 071420Z 23010KT CAVOK 09/01 Q1026 NOSIG

EGNS 071350Z 25008KT 9999 FEW020 09/02 Q1026 NOSIG

EGNS 071320Z 26008KT 230V290 9999 FEW020 08/02 Q1027 NOSIG

EGNS 071250Z 25010KT 9999 FEW020 08/03 Q1027 NOSIG

EGNS 071150Z 24009KT 210V270 9999 FEW020 07/02 Q1027

To Charter a Jet Click here.